createdAt,value
2018-05-23T00:00:04.130Z,87.80
2018-05-23T00:02:32.386Z,88.06
2018-05-23T00:05:01.421Z,88.00
2018-05-23T00:07:29.778Z,88.12
2018-05-23T00:09:58.811Z,88.35
2018-05-23T00:12:27.066Z,88.70
2018-05-23T00:14:56.104Z,88.91
2018-05-23T00:17:24.443Z,89.19
2018-05-23T00:19:53.467Z,89.67
2018-05-23T00:22:21.741Z,89.82
2018-05-23T00:24:49.986Z,89.96
2018-05-23T00:27:18.251Z,89.79
2018-05-23T00:29:48.011Z,88.44
2018-05-23T00:32:17.224Z,88.13
2018-05-23T00:34:45.500Z,88.82
2018-05-23T00:37:13.771Z,90.06
2018-05-23T00:39:42.051Z,90.83
2018-05-23T00:42:10.323Z,91.33
2018-05-23T00:44:38.603Z,91.92
2018-05-23T00:47:07.619Z,92.04
2018-05-23T00:49:35.883Z,92.11
2018-05-23T00:52:04.170Z,92.52
2018-05-23T00:54:32.435Z,92.36
2018-05-23T00:57:01.462Z,92.53
2018-05-23T00:59:29.718Z,92.50
2018-05-23T01:01:58.827Z,92.92
2018-05-23T01:04:27.895Z,93.12
2018-05-23T01:06:56.940Z,93.08
2018-05-23T01:09:25.204Z,92.84
2018-05-23T01:11:53.471Z,91.25
2018-05-23T01:14:22.495Z,91.89
2018-05-23T01:16:50.759Z,91.51
2018-05-23T01:19:19.784Z,92.35
2018-05-23T01:21:48.035Z,92.05
2018-05-23T01:24:16.304Z,90.94
2018-05-23T01:26:45.314Z,91.96
2018-05-23T01:29:13.585Z,91.52
2018-05-23T01:31:42.700Z,92.67
2018-05-23T01:34:10.960Z,93.26
2018-05-23T01:36:41.220Z,93.37
2018-05-23T01:39:09.483Z,93.25
2018-05-23T01:41:37.734Z,93.04
2018-05-23T01:44:06.782Z,92.87
2018-05-23T01:46:35.167Z,91.36
2018-05-23T01:49:21.439Z,91.67
2018-05-23T01:51:49.732Z,91.64
2018-05-23T01:54:18.003Z,90.90
2018-05-23T01:56:46.259Z,91.38
2018-05-23T01:59:15.290Z,91.55
2018-05-23T02:01:43.714Z,91.60
2018-05-23T02:04:11.976Z,90.53
2018-05-23T02:06:40.233Z,90.42
2018-05-23T02:09:08.498Z,90.98
2018-05-23T02:11:37.555Z,91.34
2018-05-23T02:14:05.827Z,91.75
2018-05-23T02:16:34.100Z,91.71
2018-05-23T02:19:02.366Z,91.83
2018-05-23T02:21:30.647Z,91.32
2018-05-23T02:23:59.207Z,91.21
2018-05-23T02:26:27.463Z,91.87
2018-05-23T02:28:56.489Z,90.40
2018-05-23T02:31:24.763Z,90.93
2018-05-23T02:33:53.787Z,91.93
2018-05-23T02:36:22.051Z,92.57
2018-05-23T02:38:50.310Z,92.72
2018-05-23T02:41:19.349Z,93.34
2018-05-23T02:43:47.608Z,92.43
2018-05-23T02:46:19.663Z,92.19
2018-05-23T02:48:48.697Z,92.27
2018-05-23T02:51:16.946Z,92.78
2018-05-23T02:53:45.202Z,93.50
2018-05-23T02:56:14.237Z,93.49
2018-05-23T02:58:44.667Z,93.57
2018-05-23T03:01:12.923Z,93.67
2018-05-23T03:03:42.038Z,94.09
2018-05-23T03:06:10.308Z,94.12
2018-05-23T03:08:39.337Z,93.81
2018-05-23T03:11:07.598Z,93.88
2018-05-23T03:13:35.874Z,93.75
2018-05-23T03:16:05.207Z,93.80
2018-05-23T03:18:33.480Z,94.13
2018-05-23T03:21:02.359Z,94.14
2018-05-23T03:23:31.455Z,94.16
2018-05-23T03:25:59.710Z,94.20
2018-05-23T03:28:28.749Z,94.14
2018-05-23T03:30:57.013Z,94.14
2018-05-23T03:33:26.031Z,94.15
2018-05-23T03:35:54.290Z,94.31
2018-05-23T03:38:23.324Z,93.87
2018-05-23T03:40:51.598Z,93.72
2018-05-23T03:43:19.869Z,93.60
2018-05-23T03:45:48.125Z,93.50
2018-05-23T03:48:16.399Z,92.57
2018-05-23T03:50:45.591Z,92.84
2018-05-23T03:53:15.052Z,92.52
2018-05-23T03:55:43.304Z,92.17
2018-05-23T03:58:12.336Z,91.75
2018-05-23T04:04:11.491Z,90.74
2018-05-23T04:06:57.782Z,89.93
2018-05-23T04:09:26.808Z,89.21
2018-05-23T04:11:55.130Z,89.65
2018-05-23T04:14:24.561Z,89.38
2018-05-23T04:16:53.675Z,89.31
2018-05-23T04:19:21.931Z,87.38
2018-05-23T04:21:50.947Z,87.96
2018-05-23T04:24:19.218Z,87.91
2018-05-23T04:26:48.237Z,87.79
2018-05-23T04:29:16.504Z,87.76
2018-05-23T04:31:45.539Z,88.47
2018-05-23T04:34:13.814Z,88.38
2018-05-23T04:36:42.063Z,88.26
2018-05-23T04:39:11.215Z,88.28
2018-05-23T04:41:39.451Z,87.97
2018-05-23T04:44:07.699Z,88.36
2018-05-23T04:46:36.624Z,88.17
2018-05-23T04:49:04.927Z,87.86
2018-05-23T04:51:33.198Z,87.54
2018-05-23T04:54:01.460Z,86.20
2018-05-23T04:56:30.486Z,84.68
2018-05-23T04:58:58.746Z,81.40
2018-05-23T05:01:27.020Z,78.58
2018-05-23T05:03:56.036Z,77.03
2018-05-23T05:06:24.300Z,76.61
2018-05-23T05:08:52.559Z,75.60
2018-05-23T05:11:21.597Z,71.96
2018-05-23T05:13:49.932Z,63.22
2018-05-23T05:16:18.887Z,54.18
2018-05-23T05:18:47.147Z,45.44
2018-05-23T05:21:15.411Z,44.28
2018-05-23T05:23:44.460Z,41.33
2018-05-23T05:26:12.795Z,38.71
2018-05-23T05:28:41.834Z,37.04
2018-05-23T05:31:10.080Z,35.26
2018-05-23T05:33:38.347Z,34.31
2018-05-23T05:36:07.380Z,35.30
2018-05-23T05:38:35.635Z,32.90
2018-05-23T05:41:03.910Z,30.39
2018-05-23T05:43:32.925Z,29.93
2018-05-23T05:46:01.195Z,30.38
2018-05-23T05:48:29.456Z,29.16
2018-05-23T05:50:58.488Z,29.26
2018-05-23T05:53:26.744Z,30.83
2018-05-23T05:55:55.768Z,33.71
2018-05-23T05:58:24.016Z,35.75
2018-05-23T06:00:53.048Z,36.07
2018-05-23T06:03:21.299Z,34.77
2018-05-23T06:05:50.330Z,32.08
2018-05-23T06:08:18.593Z,32.00
2018-05-23T06:10:46.842Z,32.63
2018-05-23T06:13:15.115Z,30.33
2018-05-23T06:15:43.388Z,32.66
2018-05-23T06:18:11.724Z,30.17
2018-05-23T06:20:39.988Z,30.92
2018-05-23T06:23:09.092Z,28.63
2018-05-23T06:25:37.381Z,33.24
2018-05-23T06:28:05.648Z,32.11
2018-05-23T06:30:34.675Z,33.39
2018-05-23T06:33:03.784Z,34.62
2018-05-23T06:35:32.055Z,35.54
2018-05-23T06:38:00.329Z,36.61
2018-05-23T06:40:28.581Z,33.20
2018-05-23T06:42:57.606Z,29.49
2018-05-23T06:45:25.881Z,30.93
2018-05-23T06:47:54.151Z,33.16
2018-05-23T06:50:22.407Z,32.49
2018-05-23T06:52:51.440Z,35.64
2018-05-23T06:55:19.699Z,32.77
2018-05-23T06:57:48.732Z,34.83
2018-05-23T07:00:16.995Z,35.97
2018-05-23T07:02:45.336Z,33.59
2018-05-23T07:05:15.594Z,35.89
2018-05-23T07:07:43.890Z,38.87
2018-05-23T07:10:12.154Z,34.33
2018-05-23T07:12:41.207Z,30.73
2018-05-23T07:15:09.539Z,28.18
2018-05-23T07:17:37.819Z,29.13
2018-05-23T07:20:06.834Z,27.88
2018-05-23T07:22:35.087Z,29.57
2018-05-23T07:25:04.115Z,27.66
2018-05-23T07:27:32.386Z,29.63
2018-05-23T07:30:00.646Z,30.80
2018-05-23T07:32:29.751Z,29.71
2018-05-23T07:34:58.778Z,31.73
2018-05-23T07:37:27.874Z,31.80
2018-05-23T07:39:56.131Z,29.42
2018-05-23T07:42:25.248Z,32.31
2018-05-23T07:44:53.503Z,28.44
2018-05-23T07:47:22.527Z,27.64
2018-05-23T07:49:50.796Z,26.33
2018-05-23T07:52:19.084Z,27.00
2018-05-23T07:54:47.335Z,28.18
2018-05-23T07:57:16.367Z,26.32
2018-05-23T07:59:44.613Z,24.99
2018-05-23T08:02:13.644Z,25.41
2018-05-23T08:04:41.920Z,25.60
2018-05-23T08:07:10.192Z,25.92
2018-05-23T08:09:39.491Z,23.24
2018-05-23T08:12:07.754Z,24.32
2018-05-23T08:14:36.789Z,21.45
2018-05-23T08:17:05.055Z,26.05
2018-05-23T08:19:33.327Z,25.00
2018-05-23T08:22:02.435Z,27.59
2018-05-23T08:24:30.751Z,26.26
2018-05-23T08:26:59.745Z,25.94
2018-05-23T08:29:28.095Z,26.79
2018-05-23T08:31:56.349Z,23.93
2018-05-23T08:34:25.389Z,24.97
2018-05-23T08:36:53.647Z,20.85
2018-05-23T08:39:22.674Z,25.41
2018-05-23T08:41:51.131Z,22.87
2018-05-23T08:44:19.406Z,20.67
2018-05-23T08:46:48.424Z,21.80
2018-05-23T08:49:16.691Z,24.85
2018-05-23T08:51:45.716Z,25.41
2018-05-23T08:54:13.989Z,29.23
2018-05-23T08:56:42.251Z,27.03
2018-05-23T08:59:11.356Z,20.84
2018-05-23T09:01:39.609Z,22.14
2018-05-23T09:04:08.645Z,25.04
2018-05-23T09:06:36.895Z,26.56
2018-05-23T09:09:06.749Z,26.56
2018-05-23T09:11:35.007Z,26.33
2018-05-23T09:14:03.278Z,25.48
2018-05-23T09:16:32.313Z,25.84
2018-05-23T09:19:03.057Z,26.64
2018-05-23T09:21:31.433Z,27.82
2018-05-23T09:23:59.700Z,27.79
2018-05-23T09:26:27.951Z,25.94
2018-05-23T09:28:56.979Z,31.03
2018-05-23T09:31:25.235Z,35.07
2018-05-23T09:33:54.267Z,39.69
2018-05-23T09:36:22.528Z,39.36
2018-05-23T09:38:50.787Z,34.70
2018-05-23T09:41:19.799Z,33.55
2018-05-23T09:43:48.087Z,34.07
2018-05-23T09:46:16.356Z,34.07
2018-05-23T09:48:45.394Z,36.70
2018-05-23T09:51:13.656Z,37.18
2018-05-23T09:53:41.924Z,30.29
2018-05-23T09:56:10.202Z,24.48
2018-05-23T09:58:38.479Z,24.73
2018-05-23T10:01:07.504Z,21.99
2018-05-23T10:03:35.758Z,19.82
2018-05-23T10:06:04.046Z,24.36
2018-05-23T10:08:32.319Z,30.36
2018-05-23T10:11:01.332Z,37.86
2018-05-23T10:13:29.632Z,40.85
2018-05-23T10:15:57.883Z,45.51
2018-05-23T10:18:26.134Z,46.53
2018-05-23T10:20:55.171Z,46.93
2018-05-23T10:23:23.414Z,44.84
2018-05-23T10:25:52.468Z,45.52
2018-05-23T10:28:20.724Z,43.63
2018-05-23T10:30:48.998Z,36.88
2018-05-23T10:33:18.132Z,34.65
2018-05-23T10:35:46.389Z,29.78
2018-05-23T10:38:14.645Z,29.89
2018-05-23T10:40:43.672Z,31.61
2018-05-23T10:43:11.936Z,31.73
2018-05-23T10:45:40.963Z,32.11
2018-05-23T10:48:09.228Z,29.30
2018-05-23T10:50:37.487Z,30.23
2018-05-23T10:53:06.603Z,35.64
2018-05-23T10:55:34.872Z,39.88
2018-05-23T10:58:03.891Z,34.27
2018-05-23T11:00:33.819Z,37.38
2018-05-23T11:03:02.131Z,36.93
2018-05-23T11:05:30.365Z,38.88
2018-05-23T11:07:58.628Z,38.55
2018-05-23T11:10:27.739Z,38.25
2018-05-23T11:12:55.995Z,32.64
2018-05-23T11:15:25.029Z,36.53
2018-05-23T11:17:53.278Z,40.35
2018-05-23T11:20:22.303Z,42.30
2018-05-23T11:22:51.528Z,45.60
2018-05-23T11:25:19.923Z,42.55
2018-05-23T11:27:48.189Z,40.89
2018-05-23T11:30:16.442Z,42.25
2018-05-23T11:32:44.694Z,42.45
2018-05-23T11:35:13.737Z,41.85
2018-05-23T11:37:41.987Z,41.02
2018-05-23T11:40:11.139Z,41.85
2018-05-23T11:42:39.398Z,35.96
2018-05-23T11:45:07.673Z,32.63
2018-05-23T11:47:35.939Z,36.53
2018-05-23T11:50:04.239Z,39.92
2018-05-23T11:52:32.501Z,40.11
2018-05-23T11:55:01.532Z,42.42
2018-05-23T11:57:29.788Z,42.49
2018-05-23T11:59:58.055Z,37.43
2018-05-23T12:02:27.084Z,41.35
2018-05-23T12:04:55.347Z,40.94
2018-05-23T12:07:23.608Z,41.41
2018-05-23T12:09:52.639Z,40.63
2018-05-23T12:12:20.895Z,34.05
2018-05-23T12:14:49.936Z,29.57
2018-05-23T12:17:18.191Z,21.56
2018-05-23T12:19:46.607Z,25.84
2018-05-23T12:22:14.739Z,27.80
2018-05-23T12:24:43.007Z,30.42
2018-05-23T12:27:12.033Z,33.39
2018-05-23T12:29:40.296Z,37.97
2018-05-23T12:32:08.546Z,39.86
2018-05-23T12:34:37.571Z,38.19
2018-05-23T12:37:06.496Z,37.57
2018-05-23T12:39:34.761Z,37.53
2018-05-23T12:42:03.030Z,37.56
2018-05-23T12:44:32.046Z,39.32
2018-05-23T12:47:00.321Z,43.74
2018-05-23T12:49:28.566Z,43.15
2018-05-23T12:51:57.610Z,45.64
2018-05-23T12:54:25.864Z,43.59
2018-05-23T12:56:55.205Z,43.81
2018-05-23T12:59:23.456Z,44.38
2018-05-23T13:01:51.745Z,43.90
2018-05-23T13:04:20.015Z,42.04
2018-05-23T13:06:48.283Z,43.96
2018-05-23T13:09:18.963Z,44.38
2018-05-23T13:11:47.231Z,45.68
2018-05-23T13:14:15.490Z,44.79
2018-05-23T13:16:44.511Z,46.45
2018-05-23T13:19:12.766Z,46.56
2018-05-23T13:21:41.038Z,48.13
2018-05-23T13:24:10.067Z,47.95
2018-05-23T13:26:38.341Z,46.19
2018-05-23T13:29:06.605Z,45.72
2018-05-23T13:31:35.632Z,44.40
2018-05-23T13:34:03.886Z,45.68
2018-05-23T13:36:32.182Z,45.67
2018-05-23T13:39:00.478Z,47.32
2018-05-23T13:41:30.698Z,46.55
2018-05-23T13:43:58.959Z,46.57
2018-05-23T13:46:27.971Z,46.93
2018-05-23T13:48:56.226Z,47.59
2018-05-23T13:51:25.271Z,49.35
2018-05-23T13:53:53.526Z,46.14
2018-05-23T13:56:21.792Z,47.20
2018-05-23T13:58:50.047Z,46.94
2018-05-23T14:01:19.088Z,47.29
2018-05-23T14:03:47.339Z,47.34
2018-05-23T14:06:16.376Z,46.15
2018-05-23T14:08:44.739Z,47.46
2018-05-23T14:11:13.011Z,45.96
2018-05-23T14:13:41.304Z,46.29
2018-05-23T14:16:09.566Z,45.03
2018-05-23T14:18:38.584Z,45.59
2018-05-23T14:21:06.853Z,47.60
2018-05-23T14:23:35.109Z,47.12
2018-05-23T14:26:04.136Z,48.36
2018-05-23T14:28:32.426Z,48.10
2018-05-23T14:31:00.666Z,47.41
2018-05-23T14:33:29.701Z,49.19
2018-05-23T14:35:58.655Z,49.93
2018-05-23T14:38:27.691Z,52.46
2018-05-23T14:40:55.944Z,53.64
2018-05-23T14:43:25.044Z,53.09
2018-05-23T14:45:53.334Z,51.18
2018-05-23T14:48:22.451Z,52.14
2018-05-23T14:50:50.701Z,52.67
2018-05-23T14:53:19.735Z,52.96
2018-05-23T14:55:47.982Z,55.28
2018-05-23T14:58:17.328Z,57.79
2018-05-23T15:00:45.575Z,55.96
2018-05-23T15:03:14.687Z,56.53
2018-05-23T15:05:42.955Z,60.05
2018-05-23T15:08:11.959Z,60.22
2018-05-23T15:10:40.230Z,63.70
2018-05-23T15:13:09.319Z,65.20
2018-05-23T15:15:39.080Z,66.43
2018-05-23T15:18:07.454Z,67.15
2018-05-23T15:20:35.714Z,68.14
2018-05-23T15:23:03.984Z,67.55
2018-05-23T15:25:33.015Z,65.70
2018-05-23T15:28:01.275Z,65.67
2018-05-23T15:30:29.581Z,65.80
2018-05-23T15:32:57.841Z,66.06
2018-05-23T15:35:26.171Z,66.57
2018-05-23T15:37:54.431Z,68.92
2018-05-23T15:40:22.681Z,69.10
2018-05-23T15:42:51.707Z,69.69
2018-05-23T15:45:19.976Z,68.00
2018-05-23T15:47:48.232Z,68.91
2018-05-23T15:50:17.259Z,68.71
2018-05-23T15:52:45.518Z,68.50
2018-05-23T15:55:13.770Z,71.58
2018-05-23T15:57:42.812Z,71.56
2018-05-23T16:00:11.668Z,75.45
2018-05-23T16:02:40.700Z,78.19
2018-05-23T16:05:08.963Z,77.09
2018-05-23T16:07:38.069Z,73.49
2018-05-23T16:10:06.361Z,72.17
2018-05-23T16:12:34.603Z,78.26
2018-05-23T16:15:03.656Z,78.47
2018-05-23T16:17:31.924Z,80.22
2018-05-23T16:20:00.198Z,82.01
2018-05-23T16:22:28.459Z,80.30
2018-05-23T16:24:57.584Z,83.31
2018-05-23T16:27:25.840Z,80.40
2018-05-23T16:29:55.397Z,81.09
2018-05-23T16:32:24.772Z,80.71
2018-05-23T16:34:53.045Z,81.02
2018-05-23T16:37:22.088Z,81.42
2018-05-23T16:39:50.340Z,80.09
2018-05-23T16:42:18.606Z,78.88
2018-05-23T16:44:46.883Z,79.77
2018-05-23T16:47:15.999Z,79.51
2018-05-23T16:49:44.271Z,81.11
2018-05-23T16:52:12.601Z,75.69
2018-05-23T16:54:41.650Z,76.45
2018-05-23T16:57:09.902Z,78.83
2018-05-23T16:59:39.075Z,79.53
2018-05-23T17:02:07.332Z,80.74
2018-05-23T17:04:36.098Z,81.47
2018-05-23T17:07:05.135Z,81.40
2018-05-23T17:09:33.415Z,80.91
2018-05-23T17:12:01.672Z,79.42
2018-05-23T17:14:30.043Z,79.43
2018-05-23T17:16:58.333Z,79.75
2018-05-23T17:19:26.617Z,81.91
2018-05-23T17:21:54.885Z,81.81
2018-05-23T17:24:23.157Z,82.65
2018-05-23T17:26:52.189Z,84.19
2018-05-23T17:29:20.467Z,81.85
2018-05-23T17:31:48.739Z,82.67
2018-05-23T17:34:16.994Z,81.70
2018-05-23T17:36:46.028Z,80.54
2018-05-23T17:39:14.283Z,80.58
2018-05-23T17:41:43.306Z,79.86
2018-05-23T17:44:11.987Z,82.38
2018-05-23T17:46:41.583Z,80.37
2018-05-23T17:49:09.835Z,81.01
2018-05-23T17:51:38.871Z,82.87
2018-05-23T17:54:07.141Z,80.91
2018-05-23T17:56:36.350Z,82.88
2018-05-23T17:59:04.599Z,81.71
2018-05-23T18:01:33.639Z,82.62
2018-05-23T18:04:01.891Z,82.68
2018-05-23T18:06:30.977Z,82.87
2018-05-23T18:09:01.667Z,83.76
2018-05-23T18:11:29.914Z,85.34
2018-05-23T18:14:00.272Z,86.04
2018-05-23T18:16:28.544Z,86.54
2018-05-23T18:18:56.807Z,86.69
2018-05-23T18:21:25.078Z,86.29
2018-05-23T18:23:54.100Z,86.13
2018-05-23T18:26:22.368Z,87.18
2018-05-23T18:28:50.625Z,87.82
2018-05-23T18:31:19.663Z,88.28
2018-05-23T18:33:47.914Z,89.17
2018-05-23T18:36:16.931Z,89.51
2018-05-23T18:38:45.473Z,89.52
2018-05-23T18:41:14.964Z,88.71
2018-05-23T18:43:43.224Z,88.37
2018-05-23T18:46:11.488Z,88.78
2018-05-23T18:48:39.748Z,90.89
2018-05-23T18:51:08.772Z,91.70
2018-05-23T18:53:37.031Z,92.39
2018-05-23T18:56:06.058Z,92.71
2018-05-23T18:58:34.318Z,92.97
2018-05-23T19:01:02.571Z,92.70
2018-05-23T19:03:31.605Z,93.08
2018-05-23T19:05:59.887Z,92.96
2018-05-23T19:08:28.139Z,93.29
2018-05-23T19:10:57.166Z,93.34
2018-05-23T19:13:25.427Z,92.85
2018-05-23T19:15:54.470Z,92.98
2018-05-23T19:18:22.730Z,93.28
2018-05-23T19:20:50.990Z,93.56
2018-05-23T19:23:20.820Z,91.97
2018-05-23T19:25:49.083Z,91.71
2018-05-23T19:28:18.102Z,91.11
2018-05-23T19:30:46.380Z,89.95
2018-05-23T19:33:14.652Z,90.33
2018-05-23T19:35:42.899Z,90.83
2018-05-23T19:38:11.927Z,90.69
2018-05-23T19:40:40.204Z,90.83
2018-05-23T19:43:08.473Z,90.74
2018-05-23T19:45:37.737Z,91.30
2018-05-23T19:48:06.078Z,92.52
2018-05-23T19:50:34.330Z,93.40
2018-05-23T19:53:03.452Z,94.39
2018-05-23T19:55:31.953Z,94.76
2018-05-23T19:58:00.214Z,94.45
2018-05-23T20:00:28.475Z,94.44
2018-05-23T20:02:57.492Z,94.44
2018-05-23T20:05:26.526Z,92.74
2018-05-23T20:07:54.792Z,92.91
2018-05-23T20:10:23.051Z,93.09
2018-05-23T20:12:52.084Z,92.88
2018-05-23T20:15:20.334Z,92.81
2018-05-23T20:17:48.590Z,93.79
2018-05-23T20:20:17.621Z,94.64
2018-05-23T20:22:45.886Z,95.25
2018-05-23T20:25:14.915Z,95.75
2018-05-23T20:27:43.502Z,95.58
2018-05-23T20:30:11.771Z,95.85
2018-05-23T20:32:40.032Z,96.05
2018-05-23T20:35:09.049Z,96.42
2018-05-23T20:37:37.315Z,96.33
2018-05-23T20:40:05.575Z,96.27
2018-05-23T20:42:34.699Z,96.20
2018-05-23T20:45:02.972Z,95.90
2018-05-23T20:47:32.001Z,96.26
2018-05-23T20:50:00.251Z,96.38
2018-05-23T20:52:29.279Z,95.62
2018-05-23T20:54:57.535Z,95.24
2018-05-23T20:57:26.569Z,94.11
2018-05-23T20:59:55.136Z,95.27
2018-05-23T21:02:23.401Z,95.72
2018-05-23T21:04:51.658Z,96.17
2018-05-23T21:07:20.696Z,96.09
2018-05-23T21:09:49.030Z,96.16
2018-05-23T21:12:18.072Z,96.30
2018-05-23T21:14:46.354Z,96.61
2018-05-23T21:17:14.636Z,96.74
2018-05-23T21:19:42.887Z,96.59
2018-05-23T21:22:11.923Z,96.59
2018-05-23T21:24:40.192Z,96.52
2018-05-23T21:27:08.458Z,96.63
2018-05-23T21:29:36.723Z,96.48
2018-05-23T21:32:06.992Z,96.52
2018-05-23T21:34:35.310Z,96.46
2018-05-23T21:37:03.515Z,96.51
2018-05-23T21:39:32.548Z,96.50
2018-05-23T21:42:00.821Z,96.60
2018-05-23T21:44:29.081Z,96.68
2018-05-23T21:46:57.356Z,96.77
2018-05-23T21:49:26.471Z,96.92
2018-05-23T21:51:54.730Z,96.92
2018-05-23T21:54:23.763Z,96.99
2018-05-23T21:56:52.035Z,96.85
2018-05-23T21:59:20.328Z,96.89
2018-05-23T22:01:48.592Z,96.87
2018-05-23T22:04:16.862Z,97.10
2018-05-23T22:06:45.883Z,97.06
2018-05-23T22:09:14.138Z,97.08
2018-05-23T22:11:42.403Z,97.00
2018-05-23T22:14:11.436Z,97.18
2018-05-23T22:16:39.694Z,97.20
2018-05-23T22:19:08.728Z,97.18
2018-05-23T22:21:36.974Z,97.11
2018-05-23T22:24:06.013Z,96.47
2018-05-23T22:26:34.372Z,96.04
2018-05-23T22:29:02.638Z,96.41
2018-05-23T22:31:31.664Z,96.37
2018-05-23T22:33:59.908Z,95.37
2018-05-23T22:36:30.179Z,96.07
2018-05-23T22:38:58.447Z,96.43
2018-05-23T22:41:26.702Z,96.52
2018-05-23T22:43:55.744Z,95.98
2018-05-23T22:46:23.996Z,96.14
2018-05-23T22:48:52.272Z,96.33
2018-05-23T22:51:20.522Z,96.66
2018-05-23T22:53:49.546Z,96.47
2018-05-23T22:56:17.799Z,95.86
2018-05-23T22:58:47.580Z,95.51
2018-05-23T23:01:15.931Z,95.80
2018-05-23T23:03:44.200Z,96.10
2018-05-23T23:06:13.226Z,96.45
2018-05-23T23:08:43.058Z,96.92
2018-05-23T23:11:11.311Z,97.16
2018-05-23T23:13:39.588Z,95.72
2018-05-23T23:16:08.426Z,95.43
2018-05-23T23:18:36.755Z,94.28
2018-05-23T23:21:05.025Z,95.15
2018-05-23T23:23:34.053Z,95.59
2018-05-23T23:26:02.323Z,96.69
2018-05-23T23:28:30.581Z,97.01
2018-05-23T23:30:59.610Z,97.18
2018-05-23T23:33:27.881Z,97.15
2018-05-23T23:35:56.151Z,97.39
2018-05-23T23:38:24.422Z,97.53
2018-05-23T23:40:53.547Z,97.52
2018-05-23T23:43:21.810Z,97.53
2018-05-23T23:45:50.081Z,97.18
2018-05-23T23:48:19.927Z,97.32
2018-05-23T23:50:48.186Z,97.38
2018-05-23T23:53:17.215Z,97.54
2018-05-23T23:55:45.495Z,97.62
2018-05-23T23:58:13.752Z,97.67
